Informes METAR

LERS - Reus (civ/Mil), Spain
Distancia desde la estación: O 7km
Actualizado: 21/07/2018 13:00
Parcialmente nuboso
Parcialmente nuboso
 Viento del O
Viento: O 20 km/h
Temperatura: 28°C
Heat Index: 27°C
Rocío: 13°C
Humedad: 40%
Barómetro: 1015 hPa
Nubes: Parcialmente nuboso
Visibilidad: 10 km
Detalles de la nube: Poco nuboso 914 m
Parcialmente nuboso 1524 m
2018/07/21 11:00 LERS 211100Z 26011KT 220V280 9999 FEW030 SCT050 28/13 Q1015
LEBL - Barcelona Airpor, Spain
Distancia desde la estación: ENE 70km
Actualizado: 21/07/2018 13:00
Parcialmente nuboso
Parcialmente nuboso
 Viento del NNO
Viento: NNO 15 km/h, Racha: 39 km/h
Temperatura: 26°C
Rocío: 17°C
Humedad: 58%
Barómetro: 1015 hPa
Nubes: Parcialmente nuboso
Visibilidad: 10 km
Detalles de la nube: Poco nuboso 610 m
Parcialmente nuboso 1067 m
2018/07/21 11:00 LEBL 211100Z 33008G21KT 290V020 9999 FEW020 SCT035 26/17 Q1015 NOSIG
 
LELL - Sabadell, Spain
Distancia desde la estación: ENE 83km
Actualizado: 21/07/2018 13:00
Muy nuboso
Muy nuboso
 Viento del S
Viento: S 6 km/h
Temperatura: 23°C
Rocío: 19°C
Humedad: 78%
Barómetro: 1015 hPa
Nubes: Muy nuboso
Visibilidad: 10 km
Detalles de la nube: Poco nuboso 1219 m
Parcialmente nuboso 1372 m
Muy nuboso 1676 m
2018/07/21 11:00 LELL 211100Z 19003KT 9999 FEW040 SCT045 BKN055 23/19 Q1015
LEDA - Lleida/Alguaire, Spain
Distancia desde la estación: NO 90km
Actualizado: 21/07/2018 08:00
NO METAR ACTUAL
Despejado
Despejado
 Viento del S
Viento: S 6 km/h
Temperatura: 16°C
Rocío: 14°C
Humedad: 88%
Barómetro: 1015 hPa
Nubes: Despejado
Visibilidad: 10 km
2018/07/21 06:00 LEDA 210600Z AUTO 17003KT 140V210 9999 NCD 16/14 Q1015
 
LESU - Pirineus/La Seu, Spain
Distancia desde la estación: N 134km
Actualizado: 21/07/2018 13:00
Parcialmente nuboso
Parcialmente nuboso
 Viento del SO
Viento: SO 19 km/h
Temperatura: 23°C
Rocío: 14°C
Humedad: 57%
Barómetro: 1016 hPa
Nubes: Parcialmente nuboso
Visibilidad: 10 km
Detalles de la nube: Poco nuboso 1372 m
Parcialmente nuboso 1981 m
2018/07/21 11:00 LESU 211100Z 23010KT 180V260 9999 FEW045 SCT065 23/14 Q1016
LEGE - Gerona/Costa Bra, Spain
Distancia desde la estación: NE 152km
Actualizado: 21/07/2018 13:00
Parcialmente nuboso
Parcialmente nuboso
 Viento del SSO
Viento: SSO 20 km/h
Temperatura: 27°C
Heat Index: 28°C
Rocío: 17°C
Humedad: 54%
Barómetro: 1013 hPa
Nubes: Parcialmente nuboso
Visibilidad: 10 km
Detalles de la nube: Poco nuboso 1067 m
Parcialmente nuboso 2286 m
2018/07/21 11:00 LEGE 211100Z 20011KT 160V260 9999 FEW035 SCT075 27/17 Q1013
 
LEHC - Huesca-Pirineos, Spain
Distancia desde la estación: NO 168km
Actualizado: 21/07/2018 13:00
Poco nuboso
Poco nuboso
 Viento del SO
Viento: SO 9 km/h
Temperatura: 24°C
Rocío: 12°C
Humedad: 47%
Barómetro: 1016 hPa
Nubes: Poco nuboso
Visibilidad: 10 km
Detalles de la nube: Poco nuboso 1219 m
2018/07/21 11:00 LEHC 211100Z 22005KT 9999 FEW040 24/12 Q1016
LEZG - Zaragoza (mil/Ci, Spain
Distancia desde la estación: ONO 198km
Actualizado: 21/07/2018 13:00
Poco nuboso
Poco nuboso
 Viento del NO
Viento: NO 22 km/h
Temperatura: 25°C
Rocío: 12°C
Humedad: 44%
Barómetro: 1016 hPa
Nubes: Poco nuboso
Visibilidad: 10 km
Detalles de la nube: Poco nuboso 1524 m
2018/07/21 11:00 LEZG 211100Z 31012KT 270V350 9999 FEW050 25/12 Q1016
 
LECH - Calamocha, Spain
Distancia desde la estación: O 216km
Actualizado: 21/07/2018 13:00
Despejado
Despejado
 Viento del ESE
Viento: ESE 22 km/h
Temperatura: 26°C
Rocío: 14°C
Humedad: 48%
Barómetro: 1015 hPa
Nubes: Despejado
Visibilidad: 10 km
2018/07/21 11:00 LECH 211100Z AUTO 12012KT 080V150 9999 NCD 26/14 Q1015
LEPA - Palma De Mallorc, Spain
Distancia desde la estación: SE 217km
Actualizado: 21/07/2018 13:00
Poco nuboso
Poco nuboso
 Viento del ENE
Viento: ENE 13 km/h
Temperatura: 31°C
Heat Index: 33°C
Rocío: 20°C
Humedad: 52%
Barómetro: 1013 hPa
Nubes: Poco nuboso
Visibilidad: 10 km
Detalles de la nube: Poco nuboso 488 m
2018/07/21 11:00 LEPA 211100Z 06007KT 360V110 9999 FEW016 31/20 Q1013 BECMG 22010KT
 
LFMP - Perpignan/Rivesa, France
Distancia desde la estación: NE 222km
Actualizado: 21/07/2018 13:00
Thunderstorm
Thunderstorm
 Viento del NNO
Viento: NNO 17 km/h
Temperatura: 26°C
Rocío: 13°C
Humedad: 45%
Barómetro: 1014 hPa
Nubes: Thunderstorm
Visibilidad: 10 km
Detalles de la nube: Poco nuboso 1372 m
Parcialmente nuboso 2316 m
2018/07/21 11:00 LFMP 211100Z AUTO 33009KT 290V010 9999 FEW045/// SCT076/// ///TCU 26/13 Q1014 TEMPO 32015G25KT BECMG SCT050
LEVC - Valencia (civ/Mi, Spain
Distancia desde la estación: SO 232km
Actualizado: 21/07/2018 13:00
Poco nuboso
Poco nuboso
 Viento del E
Viento: E 17 km/h
Temperatura: 29°C
Heat Index: 29°C
Rocío: 17°C
Humedad: 48%
Barómetro: 1014 hPa
Nubes: Poco nuboso
Visibilidad: 10 km
Detalles de la nube: Poco nuboso 914 m
2018/07/21 11:00 LEVC 211100Z 09009KT 060V120 9999 FEW030 29/17 Q1014 NOSIG
 
LFMK - Carcassonne/Salv, France
Distancia desde la estación: NNE 248km
Actualizado: 21/07/2018 13:00
Cubierto
Cubierto
 Viento del O
Viento: O 17 km/h
Temperatura: 22°C
Rocío: 15°C
Humedad: 65%
Barómetro: 1016 hPa
Nubes: Cubierto
Visibilidad: 10 km
Detalles de la nube: Poco nuboso 914 m
Muy nuboso 1128 m
Cubierto 1646 m
2018/07/21 11:00 LFMK 211100Z AUTO 28009KT 240V310 9999 FEW030 BKN037 OVC054 22/15 Q1016 NOSIG
LFBT - Tarbes/Ossun, France
Distancia desde la estación: NNO 249km
Actualizado: 21/07/2018 13:00
Cubierto
Cubierto
 Viento del NO
Viento: NO 7 km/h
Temperatura: 21°C
Rocío: 13°C
Humedad: 60%
Barómetro: 1017 hPa
Nubes: Cubierto
Visibilidad: 10 km
Detalles de la nube: Muy nuboso 975 m
Muy nuboso 1219 m
Cubierto 1829 m
2018/07/21 11:00 LFBT 211100Z AUTO 31004KT 220V020 9999 BKN032 BKN040 OVC060 21/13 Q1017 TEMPO 4000 SHRA BKN030TCU
 
LEIB - Ibiza/Es Codola, Spain
Distancia desde la estación: S 252km
Actualizado: 21/07/2018 13:00
Parcialmente nuboso
Parcialmente nuboso
 Viento del varia
Viento: varia 9 km/h
Temperatura: 30°C
Heat Index: 33°C
Rocío: 22°C
Humedad: 62%
Barómetro: 1013 hPa
Nubes: Parcialmente nuboso
Visibilidad: 10 km
Detalles de la nube: Poco nuboso 762 m
Parcialmente nuboso 1158 m
2018/07/21 11:00 LEIB 211100Z VRB05KT 9999 FEW025 SCT038 30/22 Q1013 NOSIG
LFBO - Toulouse/Blagnac, France
Distancia desde la estación: N 277km
Actualizado: 21/07/2018 13:00
Muy nuboso
Muy nuboso
 Viento del O
Viento: O 9 km/h
Temperatura: 22°C
Rocío: 15°C
Humedad: 65%
Barómetro: 1017 hPa
Nubes: Muy nuboso
Visibilidad: 10 km
Detalles de la nube: Muy nuboso 945 m
Muy nuboso 1128 m
Muy nuboso 1341 m
2018/07/21 11:00 LFBO 211100Z AUTO 27005KT 230V320 9999 BKN031 BKN037 BKN044 22/15 Q1017 NOSIG
 
LFCK - Castres-Mazamet, France
Distancia desde la estación: NNE 282km
Actualizado: 21/07/2018 13:00
Cubierto
Cubierto
 Viento del N
Viento: N 11 km/h
Temperatura: 21°C
Rocío: 13°C
Humedad: 60%
Barómetro: 1018 hPa
Nubes: Cubierto
Visibilidad: 10 km
Detalles de la nube: Muy nuboso 975 m
Muy nuboso 1250 m
Cubierto 1646 m
2018/07/21 11:00 LFCK 211100Z AUTO 35006KT 290V040 9999 BKN032 BKN041 OVC054 21/13 Q1018 NOSIG
LFBP - Pont-Long-Uzein/, France
Distancia desde la estación: NNO 284km
Actualizado: 21/07/2018 13:00
Muy nuboso
Muy nuboso
 Viento del O
Viento: O 13 km/h
Temperatura: 21°C
Rocío: 16°C
Humedad: 73%
Barómetro: 1017 hPa
Nubes: Muy nuboso
Visibilidad: 10 km
Detalles de la nube: Parcialmente nuboso 792 m
Parcialmente nuboso 1311 m
Muy nuboso 2134 m
2018/07/21 11:00 LFBP 211100Z AUTO 28007KT 9999 SCT026 SCT043 BKN070 21/16 Q1017 TEMPO 4000 SHRA BKN030TCU
 
LEMH - Mahon/Menorca Is, Spain
Distancia desde la estación: ESE 288km
Actualizado: 21/07/2018 13:00
Muy nuboso
Muy nuboso
 Viento del NNE
Viento: NNE 24 km/h
Temperatura: 27°C
Heat Index: 29°C
Rocío: 20°C
Humedad: 66%
Barómetro: 1014 hPa
Nubes: Muy nuboso
Visibilidad: 10 km
Detalles de la nube: Poco nuboso 610 m
Muy nuboso 1280 m
2018/07/21 11:00 LEMH 211100Z 03013KT 350V070 9999 FEW020 BKN042 27/20 Q1014
LFMU - Beziers/Vias, France
Distancia desde la estación: NE 299km
Actualizado: 21/07/2018 13:00
Despejado
Despejado
 Viento del NNO
Viento: NNO 19 km/h
Temperatura: 27°C
Rocío: 10°C
Humedad: 34%
Barómetro: 1013 hPa
Resumen: Despejado
Visibilidad: greater than 10 km
2018/07/21 11:00 LFMU 211100Z AUTO 34010KT 270V040 CAVOK 27/10 Q1013 NOSIG

 ♦     ♦     ♦     Nunca base decisiones importantes en estos datos u otros obtenidos de Internet     ♦     ♦     ♦